Time;durP1;ratioP1;P1;durP2;ratioP2;P2;SDS_P1;SDS_P2;PMS_P1;PMS_P2;Temp;Humidity;BMP_temperature;BMP_pressure;BME280_temperature;BME280_humidity;BME280_pressure;Samples;Min_cycle;Max_cycle;Signal;HPM_P1;HPM_P2
2024/01/31 00:01:18;;;;;;;20.52;16.35;;;4.40;99.90;;;;;;4948439;28;20041;-63
2024/01/31 00:03:45;;;;;;;22.95;17.60;;;4.40;99.90;;;;;;4953984;28;20031;-63
2024/01/31 00:06:11;;;;;;;22.23;18.15;;;4.40;99.90;;;;;;4954362;28;20035;-62
2024/01/31 00:08:37;;;;;;;31.52;19.45;;;4.40;99.90;;;;;;4950785;28;20035;-63
2024/01/31 00:11:03;;;;;;;26.85;17.38;;;4.40;99.90;;;;;;4943447;28;20024;-61
2024/01/31 00:13:29;;;;;;;22.33;17.23;;;4.40;99.90;;;;;;4944259;28;20372;-63
2024/01/31 00:15:54;;;;;;;22.55;16.85;;;4.40;99.90;;;;;;4944257;28;20102;-63
2024/01/31 00:18:20;;;;;;;27.33;17.98;;;4.30;99.90;;;;;;4949135;28;20031;-63
2024/01/31 00:20:46;;;;;;;27.50;18.30;;;4.30;99.90;;;;;;4949001;28;20035;-64
2024/01/31 00:23:12;;;;;;;25.70;16.73;;;4.30;99.90;;;;;;4948078;28;20053;-61
2024/01/31 00:25:38;;;;;;;21.30;17.55;;;4.30;99.90;;;;;;4948007;28;20027;-62
2024/01/31 00:28:03;;;;;;;22.92;17.35;;;4.20;99.90;;;;;;4948414;28;20045;-63
2024/01/31 00:30:29;;;;;;;26.48;17.35;;;4.20;99.90;;;;;;4949225;28;20777;-64
2024/01/31 00:32:55;;;;;;;23.33;18.38;;;4.20;99.90;;;;;;4945120;28;20479;-62
2024/01/31 00:35:20;;;;;;;28.00;18.02;;;4.20;99.90;;;;;;4945080;28;20039;-63
2024/01/31 00:37:46;;;;;;;23.83;16.52;;;4.20;99.90;;;;;;4945361;28;20086;-63
2024/01/31 00:40:12;;;;;;;23.80;17.98;;;4.20;99.90;;;;;;4944754;28;20522;-63
2024/01/31 00:42:39;;;;;;;28.17;16.52;;;4.20;99.90;;;;;;4945583;28;20122;-62
2024/01/31 00:45:07;;;;;;;22.42;16.42;;;4.20;99.90;;;;;;4946038;28;20035;-63
2024/01/31 00:47:33;;;;;;;32.58;18.23;;;4.30;99.90;;;;;;4948610;28;20806;-63
2024/01/31 00:49:59;;;;;;;20.83;16.52;;;4.30;99.90;;;;;;4946680;28;20027;-62
2024/01/31 00:52:24;;;;;;;23.98;16.52;;;4.30;99.90;;;;;;4949158;28;20104;-63
2024/01/31 00:54:50;;;;;;;19.08;17.05;;;4.30;99.90;;;;;;4948942;28;20447;-62
2024/01/31 00:57:17;;;;;;;20.35;16.23;;;4.30;99.90;;;;;;4944916;28;20121;-63
2024/01/31 00:59:43;;;;;;;23.20;17.33;;;4.40;99.90;;;;;;4950421;28;20130;-63
2024/01/31 01:02:09;;;;;;;25.05;17.55;;;4.40;99.90;;;;;;4948483;28;20021;-63
2024/01/31 01:04:35;;;;;;;29.20;17.42;;;4.40;99.90;;;;;;4951443;28;20039;-64
2024/01/31 01:07:00;;;;;;;20.98;15.90;;;4.50;99.90;;;;;;4934272;28;20554;-64
2024/01/31 01:09:26;;;;;;;23.90;16.92;;;4.50;99.90;;;;;;4946374;28;20035;-62
2024/01/31 01:11:52;;;;;;;26.40;18.02;;;4.50;99.90;;;;;;4949806;28;20090;-61
2024/01/31 01:14:18;;;;;;;26.90;18.45;;;4.50;99.90;;;;;;4948116;28;20031;-63
2024/01/31 01:16:43;;;;;;;23.67;16.17;;;4.50;99.90;;;;;;4944618;28;20051;-61
2024/01/31 01:19:09;;;;;;;25.00;16.80;;;4.60;99.90;;;;;;4947913;28;20478;-61
2024/01/31 01:21:36;;;;;;;22.98;16.20;;;4.60;99.90;;;;;;4947790;28;20041;-61
2024/01/31 01:24:02;;;;;;;22.67;17.00;;;4.60;99.90;;;;;;4949178;28;20038;-62
2024/01/31 01:26:28;;;;;;;23.45;16.77;;;4.60;99.90;;;;;;4947619;28;20093;-60
2024/01/31 01:28:53;;;;;;;19.80;15.07;;;4.60;99.90;;;;;;4946807;28;20118;-62
2024/01/31 01:31:19;;;;;;;21.90;17.30;;;4.60;99.90;;;;;;4948601;28;20055;-62
2024/01/31 01:33:45;;;;;;;23.45;18.48;;;4.60;99.90;;;;;;4949025;28;20066;-62
2024/01/31 01:36:10;;;;;;;28.63;17.25;;;4.60;99.90;;;;;;4947101;28;20061;-62
2024/01/31 01:38:37;;;;;;;17.95;14.75;;;4.60;99.90;;;;;;4945687;28;20050;-62
2024/01/31 01:41:03;;;;;;;27.58;16.98;;;4.60;99.90;;;;;;4945550;28;20948;-63
2024/01/31 01:43:29;;;;;;;24.60;17.23;;;4.60;99.90;;;;;;4943184;28;20027;-61
2024/01/31 01:46:21;;;;;;;19.27;15.10;;;4.70;99.90;;;;;;4936291;28;20488;-62
2024/01/31 01:48:47;;;;;;;28.00;17.45;;;4.60;99.90;;;;;;4944268;28;20653;-62
2024/01/31 01:51:23;;;;;;;18.85;16.48;;;4.60;99.90;;;;;;4945533;28;20031;-62
2024/01/31 01:53:50;;;;;;;27.48;17.48;;;4.70;99.90;;;;;;4946341;28;20387;-62
2024/01/31 01:56:17;;;;;;;24.25;17.40;;;4.60;99.90;;;;;;4947584;28;20467;-61
2024/01/31 01:58:44;;;;;;;17.83;15.60;;;4.60;99.90;;;;;;4957084;28;20376;-62
2024/01/31 02:01:12;;;;;;;20.17;16.17;;;4.60;99.90;;;;;;4952626;28;20107;-63
2024/01/31 02:03:38;;;;;;;23.52;16.40;;;4.60;99.90;;;;;;4934841;28;20143;-61
2024/01/31 02:06:04;;;;;;;22.13;16.50;;;4.60;99.90;;;;;;4941291;28;20454;-63
2024/01/31 02:08:30;;;;;;;22.83;16.63;;;4.60;99.90;;;;;;4953510;28;20027;-62
2024/01/31 02:10:56;;;;;;;23.25;16.17;;;4.60;99.90;;;;;;4933295;29;20055;-62
2024/01/31 02:13:22;;;;;;;25.00;17.23;;;4.70;99.90;;;;;;4933557;28;20016;-61
2024/01/31 02:15:56;;;;;;;20.15;17.42;;;4.70;99.90;;;;;;4943116;28;20038;-62
2024/01/31 02:18:22;;;;;;;27.25;18.98;;;4.70;99.90;;;;;;4950739;28;20031;-61
2024/01/31 02:20:48;;;;;;;21.60;17.40;;;4.70;99.90;;;;;;4952330;28;20043;-62
2024/01/31 02:23:15;;;;;;;27.35;16.83;;;4.70;99.90;;;;;;4949358;28;20094;-62
2024/01/31 02:25:41;;;;;;;22.13;16.65;;;4.70;99.90;;;;;;4946285;28;20023;-62
2024/01/31 02:28:06;;;;;;;17.27;15.45;;;4.70;99.90;;;;;;4947846;28;20027;-61
2024/01/31 02:30:32;;;;;;;20.40;15.65;;;4.70;99.90;;;;;;4947219;28;20031;-61
2024/01/31 02:32:57;;;;;;;20.05;16.30;;;4.70;99.90;;;;;;4948281;28;20118;-62
2024/01/31 02:35:27;;;;;;;23.25;15.77;;;4.70;99.90;;;;;;4947231;28;20039;-61
2024/01/31 02:37:52;;;;;;;23.40;16.88;;;4.70;99.90;;;;;;4954647;28;20023;-62
2024/01/31 02:40:18;;;;;;;17.20;14.73;;;4.70;99.90;;;;;;4948392;28;20383;-62
2024/01/31 02:42:44;;;;;;;23.13;15.93;;;4.70;99.90;;;;;;4947963;28;20031;-62
2024/01/31 02:45:10;;;;;;;19.02;16.05;;;4.70;99.90;;;;;;4940363;28;20039;-62
2024/01/31 02:47:36;;;;;;;19.17;15.48;;;4.70;99.90;;;;;;4929249;28;20562;-62
2024/01/31 02:50:03;;;;;;;18.83;15.48;;;4.70;99.90;;;;;;4933529;28;20835;-61
2024/01/31 02:52:29;;;;;;;19.05;15.80;;;4.70;99.90;;;;;;4946550;28;20451;-61
2024/01/31 02:54:55;;;;;;;20.35;15.45;;;4.70;99.90;;;;;;4949079;28;20042;-62
2024/01/31 02:57:20;;;;;;;21.92;16.42;;;4.70;99.90;;;;;;4949521;28;20034;-62
2024/01/31 02:59:46;;;;;;;23.52;16.63;;;4.70;99.90;;;;;;4951010;28;20023;-62
2024/01/31 03:02:14;;;;;;;19.08;15.80;;;4.70;99.90;;;;;;4955728;28;20103;-63
2024/01/31 03:04:40;;;;;;;24.65;15.35;;;4.70;99.90;;;;;;4954469;28;20037;-62
2024/01/31 03:07:06;;;;;;;22.42;15.27;;;4.60;99.90;;;;;;4956985;28;20043;-62
2024/01/31 03:09:31;;;;;;;22.75;17.50;;;4.60;99.90;;;;;;4947440;28;20042;-62
2024/01/31 03:11:57;;;;;;;29.48;18.83;;;4.60;99.90;;;;;;4951065;28;20046;-61
2024/01/31 03:14:23;;;;;;;22.27;16.27;;;4.70;99.90;;;;;;4950899;28;20122;-61
2024/01/31 03:16:48;;;;;;;26.02;17.25;;;4.70;99.90;;;;;;4943905;28;20039;-62
2024/01/31 03:19:15;;;;;;;29.15;18.92;;;4.70;99.90;;;;;;4954599;28;20039;-61
2024/01/31 03:21:41;;;;;;;33.25;20.27;;;4.70;99.90;;;;;;4959939;28;20106;-62
2024/01/31 03:24:06;;;;;;;45.63;22.10;;;4.70;99.90;;;;;;4939071;28;20123;-62
2024/01/31 03:26:32;;;;;;;32.33;21.83;;;4.70;99.90;;;;;;4930607;28;20032;-62
2024/01/31 03:29:01;;;;;;;35.40;21.08;;;4.60;99.90;;;;;;4943694;28;20024;-63
2024/01/31 03:31:27;;;;;;;35.05;21.48;;;4.50;99.90;;;;;;4954986;28;20026;-62
2024/01/31 03:33:53;;;;;;;37.22;22.30;;;4.50;99.90;;;;;;4935632;28;20028;-61
2024/01/31 03:36:18;;;;;;;29.95;21.58;;;4.50;99.90;;;;;;4944580;28;20090;-62
2024/01/31 03:38:44;;;;;;;35.25;25.15;;;4.50;99.90;;;;;;4953198;28;20028;-62
2024/01/31 03:41:10;;;;;;;33.67;20.42;;;4.40;99.90;;;;;;4954099;28;20031;-62
2024/01/31 03:43:35;;;;;;;27.85;20.23;;;4.40;99.90;;;;;;4959818;28;20427;-62
2024/01/31 03:46:05;;;;;;;31.15;20.35;;;4.40;99.90;;;;;;4934313;28;20451;-62
2024/01/31 03:48:31;;;;;;;27.08;18.35;;;4.30;99.90;;;;;;4942134;28;20035;-62
2024/01/31 03:50:58;;;;;;;24.73;17.52;;;4.20;99.90;;;;;;4949053;28;20027;-63
2024/01/31 03:53:25;;;;;;;28.73;19.17;;;4.20;99.90;;;;;;4947105;28;20676;-62
2024/01/31 03:55:51;;;;;;;28.52;18.90;;;4.10;99.90;;;;;;4948956;28;20034;-62
2024/01/31 03:58:17;;;;;;;29.08;20.60;;;4.10;99.90;;;;;;4947470;28;20056;-62
2024/01/31 04:00:43;;;;;;;30.20;22.27;;;4.00;99.90;;;;;;4949494;28;20031;-62
2024/01/31 04:03:09;;;;;;;29.83;19.38;;;4.00;99.90;;;;;;4934985;28;20115;-63
2024/01/31 04:05:34;;;;;;;31.05;19.48;;;4.00;99.90;;;;;;4950555;28;20107;-63
2024/01/31 04:08:01;;;;;;;36.03;21.35;;;4.00;99.90;;;;;;4946658;28;20117;-63
2024/01/31 04:10:26;;;;;;;36.03;23.27;;;3.90;99.90;;;;;;4940619;28;20023;-64
2024/01/31 04:12:52;;;;;;;32.33;21.63;;;3.90;99.90;;;;;;4938158;28;20746;-62
2024/01/31 04:15:18;;;;;;;28.65;20.95;;;4.00;99.90;;;;;;4940081;28;20502;-62
2024/01/31 04:17:44;;;;;;;35.15;23.42;;;3.90;99.90;;;;;;4946260;28;20059;-63
2024/01/31 04:20:11;;;;;;;41.50;21.98;;;3.90;99.90;;;;;;4942884;28;20036;-64
2024/01/31 04:22:37;;;;;;;29.13;21.98;;;3.90;99.90;;;;;;4948635;29;20356;-62
2024/01/31 04:25:04;;;;;;;33.70;22.10;;;3.90;99.90;;;;;;4949950;28;20035;-63
2024/01/31 04:27:29;;;;;;;38.50;24.63;;;3.90;99.90;;;;;;4949208;28;20046;-65
2024/01/31 04:29:55;;;;;;;30.00;22.17;;;3.90;99.90;;;;;;4949519;28;20031;-64
2024/01/31 04:32:23;;;;;;;35.38;23.25;;;3.90;99.90;;;;;;4953558;28;20066;-65
2024/01/31 04:34:50;;;;;;;37.00;24.23;;;3.90;99.90;;;;;;4927152;29;20039;-64
2024/01/31 04:37:16;;;;;;;38.80;24.35;;;3.90;99.90;;;;;;4953962;28;20038;-64
2024/01/31 04:39:42;;;;;;;42.28;26.50;;;3.90;99.90;;;;;;4951076;28;20035;-63
2024/01/31 04:42:08;;;;;;;44.67;26.02;;;4.00;99.90;;;;;;4941474;28;20035;-64
2024/01/31 04:44:34;;;;;;;43.08;27.35;;;4.00;99.90;;;;;;4927234;28;20094;-64
2024/01/31 04:47:00;;;;;;;46.33;26.20;;;4.00;99.90;;;;;;4939941;28;20025;-64
2024/01/31 04:49:26;;;;;;;41.83;27.02;;;4.00;99.90;;;;;;4946564;28;20027;-64
2024/01/31 04:51:52;;;;;;;42.22;26.77;;;4.00;99.90;;;;;;4946639;28;20032;-63
2024/01/31 04:54:17;;;;;;;49.95;27.27;;;4.10;99.90;;;;;;4949285;28;20031;-64
2024/01/31 04:56:44;;;;;;;43.65;27.00;;;4.10;99.90;;;;;;4952455;28;20046;-64
2024/01/31 04:59:09;;;;;;;40.08;25.20;;;4.10;99.90;;;;;;4948628;28;20020;-65
2024/01/31 05:01:35;;;;;;;56.67;27.15;;;4.10;99.90;;;;;;4948271;28;20024;-64
2024/01/31 05:04:01;;;;;;;43.70;24.80;;;4.10;99.90;;;;;;4946899;28;20027;-65
2024/01/31 05:06:26;;;;;;;38.50;24.95;;;4.10;99.90;;;;;;4948689;28;20579;-64
2024/01/31 05:08:52;;;;;;;39.05;26.35;;;4.10;99.90;;;;;;4948370;28;20400;-64
2024/01/31 05:11:18;;;;;;;40.17;25.50;;;4.10;99.90;;;;;;4948860;28;20027;-64
2024/01/31 05:13:44;;;;;;;42.63;26.75;;;4.10;99.90;;;;;;4930703;29;20034;-64
2024/01/31 05:16:10;;;;;;;43.15;27.15;;;4.10;99.90;;;;;;4942449;28;20070;-65
2024/01/31 05:18:36;;;;;;;50.22;26.55;;;4.10;99.90;;;;;;4943494;28;20032;-65
2024/01/31 05:21:02;;;;;;;52.70;28.00;;;4.10;99.90;;;;;;4948467;28;20047;-64
2024/01/31 05:23:28;;;;;;;44.45;25.85;;;4.10;99.90;;;;;;4945539;28;20031;-64
2024/01/31 05:25:54;;;;;;;42.60;26.38;;;4.10;99.90;;;;;;4946678;28;20039;-64
2024/01/31 05:28:20;;;;;;;45.78;25.92;;;4.20;99.90;;;;;;4950430;28;20039;-64
2024/01/31 05:30:46;;;;;;;47.25;25.88;;;4.10;99.90;;;;;;4949205;28;20042;-65
2024/01/31 05:33:12;;;;;;;34.90;23.88;;;4.10;99.90;;;;;;4950297;28;20114;-64
2024/01/31 05:35:38;;;;;;;37.88;23.52;;;4.20;99.90;;;;;;4946375;28;20223;-64
2024/01/31 05:38:05;;;;;;;51.60;25.48;;;4.10;99.90;;;;;;4949011;28;20487;-65
2024/01/31 05:40:31;;;;;;;40.53;24.08;;;4.10;99.90;;;;;;4945379;28;20511;-63
2024/01/31 05:42:57;;;;;;;49.00;26.02;;;4.10;99.90;;;;;;4950066;28;20503;-65
2024/01/31 05:45:23;;;;;;;47.03;24.50;;;4.10;99.90;;;;;;4949965;28;20071;-63
2024/01/31 05:47:48;;;;;;;42.58;23.42;;;4.20;99.90;;;;;;4941346;28;20044;-64
2024/01/31 05:50:14;;;;;;;40.70;23.75;;;4.10;99.90;;;;;;4931925;29;20386;-64
2024/01/31 05:52:40;;;;;;;40.47;24.55;;;4.10;99.90;;;;;;4932561;29;20487;-65
2024/01/31 05:55:06;;;;;;;64.25;26.33;;;4.10;99.90;;;;;;4928926;28;20068;-63
2024/01/31 05:57:32;;;;;;;54.90;25.65;;;4.10;99.90;;;;;;4939601;28;20070;-63
2024/01/31 05:59:58;;;;;;;48.53;27.80;;;4.00;99.90;;;;;;4947908;28;20024;-63
2024/01/31 06:02:23;;;;;;;50.88;26.45;;;4.00;99.90;;;;;;4950291;28;20123;-63
2024/01/31 06:04:49;;;;;;;45.80;25.50;;;3.90;99.90;;;;;;4951777;28;20027;-64
2024/01/31 06:07:15;;;;;;;57.40;26.52;;;3.90;99.90;;;;;;4949789;28;20042;-64
2024/01/31 06:09:40;;;;;;;42.80;25.23;;;3.90;99.90;;;;;;4950620;28;20043;-64
2024/01/31 06:12:07;;;;;;;53.72;25.60;;;3.80;99.90;;;;;;4949575;28;20042;-64
2024/01/31 06:14:35;;;;;;;39.75;25.80;;;3.90;99.90;;;;;;4948073;28;20070;-63
2024/01/31 06:17:02;;;;;;;37.58;24.50;;;3.80;99.90;;;;;;4950306;28;20806;-65
2024/01/31 06:19:27;;;;;;;45.17;25.25;;;3.90;99.90;;;;;;4950180;28;20506;-64
2024/01/31 06:21:53;;;;;;;38.88;25.17;;;3.90;99.90;;;;;;4944573;28;20032;-64
2024/01/31 06:24:19;;;;;;;40.28;25.38;;;4.00;99.90;;;;;;4947498;28;20038;-63
2024/01/31 06:26:44;;;;;;;51.20;27.35;;;4.00;99.90;;;;;;4956052;28;20529;-63
2024/01/31 06:29:17;;;;;;;35.83;24.10;;;4.00;99.90;;;;;;4956399;28;20027;-63
2024/01/31 06:31:46;;;;;;;37.22;23.90;;;4.00;99.90;;;;;;4933640;29;20040;-63
2024/01/31 06:34:12;;;;;;;41.00;25.88;;;4.00;99.90;;;;;;4950740;28;20074;-64
2024/01/31 06:36:38;;;;;;;42.17;24.85;;;4.00;99.90;;;;;;4951231;28;20039;-63
2024/01/31 06:39:03;;;;;;;41.60;25.08;;;4.00;99.90;;;;;;4953481;28;20045;-63
2024/01/31 06:41:29;;;;;;;38.92;25.45;;;4.10;99.90;;;;;;4952566;28;20039;-63
2024/01/31 06:43:55;;;;;;;43.83;26.88;;;4.00;99.90;;;;;;4954326;28;20038;-63
2024/01/31 06:46:20;;;;;;;50.67;26.02;;;4.10;99.90;;;;;;4931092;28;20055;-63
2024/01/31 06:48:46;;;;;;;51.50;26.25;;;4.10;99.90;;;;;;4943211;28;20079;-64
2024/01/31 06:51:12;;;;;;;56.20;26.20;;;4.10;99.90;;;;;;4950004;28;20098;-64
2024/01/31 06:53:37;;;;;;;38.38;25.05;;;4.10;99.90;;;;;;4949310;28;20031;-64
2024/01/31 06:56:03;;;;;;;46.00;24.67;;;4.10;99.90;;;;;;4951539;28;20063;-63
2024/01/31 06:58:32;;;;;;;46.15;25.65;;;4.10;99.90;;;;;;4950102;28;20055;-63
2024/01/31 07:01:01;;;;;;;40.28;24.42;;;4.10;99.90;;;;;;4951625;28;20031;-63
2024/01/31 07:03:26;;;;;;;47.17;25.75;;;4.00;99.90;;;;;;4948941;28;20023;-62
2024/01/31 07:05:53;;;;;;;52.60;25.48;;;4.00;99.90;;;;;;4950194;28;20032;-64
2024/01/31 07:08:18;;;;;;;46.13;25.60;;;3.90;99.90;;;;;;4969514;28;20105;-64
2024/01/31 07:10:44;;;;;;;46.40;26.40;;;3.90;99.90;;;;;;4952548;28;20118;-64
2024/01/31 07:13:10;;;;;;;36.10;24.63;;;3.90;99.90;;;;;;4952251;28;20070;-63
2024/01/31 07:15:35;;;;;;;49.45;25.52;;;3.90;99.90;;;;;;4953396;28;20031;-63
2024/01/31 07:18:01;;;;;;;54.95;26.33;;;4.00;99.90;;;;;;4951047;28;20094;-63
2024/01/31 07:20:27;;;;;;;44.63;25.48;;;4.00;99.90;;;;;;4946417;28;20091;-63
2024/01/31 07:22:53;;;;;;;48.95;26.35;;;4.00;99.90;;;;;;4948428;28;20019;-63
2024/01/31 07:25:19;;;;;;;47.47;28.48;;;4.10;99.90;;;;;;4947156;28;20519;-64
2024/01/31 07:27:45;;;;;;;50.97;27.58;;;4.10;99.90;;;;;;4949478;28;20085;-64
2024/01/31 07:30:11;;;;;;;45.53;27.70;;;4.10;99.90;;;;;;4948962;28;20047;-63
2024/01/31 07:32:38;;;;;;;50.50;28.55;;;4.20;99.90;;;;;;4946115;28;20031;-63
2024/01/31 07:35:04;;;;;;;54.92;29.67;;;4.20;99.90;;;;;;4949427;28;20399;-63
2024/01/31 07:37:30;;;;;;;54.88;27.42;;;4.20;99.90;;;;;;4953814;28;20082;-64
2024/01/31 07:39:57;;;;;;;73.53;30.52;;;4.30;99.90;;;;;;4947000;28;20058;-64
2024/01/31 07:42:23;;;;;;;112.43;40.08;;;4.30;99.90;;;;;;4948465;28;20035;-64
2024/01/31 07:44:49;;;;;;;103.65;38.13;;;4.40;99.90;;;;;;4949606;28;20101;-64
2024/01/31 07:47:15;;;;;;;84.05;36.03;;;4.40;99.90;;;;;;4955461;28;20035;-63
2024/01/31 07:49:41;;;;;;;84.28;34.22;;;4.40;99.90;;;;;;4946399;28;20551;-64
2024/01/31 07:52:07;;;;;;;81.70;32.95;;;4.50;99.90;;;;;;4949309;28;20123;-63
2024/01/31 07:54:32;;;;;;;72.25;31.95;;;4.60;99.90;;;;;;4949725;28;20122;-64
2024/01/31 07:56:59;;;;;;;72.75;30.75;;;4.60;99.90;;;;;;4944006;28;20139;-64
2024/01/31 07:59:25;;;;;;;79.07;28.92;;;4.70;99.90;;;;;;4930843;29;20035;-63
2024/01/31 08:01:51;;;;;;;56.83;28.95;;;4.70;99.90;;;;;;4931180;28;20039;-63
2024/01/31 08:04:17;;;;;;;68.70;28.20;;;4.80;99.90;;;;;;4949209;28;20067;-63
2024/01/31 08:06:43;;;;;;;56.05;26.60;;;4.90;99.90;;;;;;4941388;28;20027;-63
2024/01/31 08:09:09;;;;;;;52.72;27.63;;;4.90;99.90;;;;;;4940755;28;20036;-64
2024/01/31 08:11:41;;;;;;;47.85;27.58;;;5.10;99.90;;;;;;4950269;28;20106;-64
2024/01/31 08:14:07;;;;;;;48.53;25.55;;;5.10;99.90;;;;;;4952818;28;20023;-63
2024/01/31 08:16:33;;;;;;;55.65;27.38;;;5.20;99.90;;;;;;4953433;28;20403;-64
2024/01/31 08:18:58;;;;;;;42.80;25.08;;;5.30;99.90;;;;;;4951449;28;20142;-64
2024/01/31 08:21:24;;;;;;;55.40;29.40;;;5.30;99.90;;;;;;4939093;28;20090;-63
2024/01/31 08:23:50;;;;;;;44.67;26.95;;;5.40;99.90;;;;;;4930628;28;20044;-64
2024/01/31 08:26:18;;;;;;;62.28;32.30;;;5.40;99.90;;;;;;4931358;28;20043;-63
2024/01/31 08:28:45;;;;;;;59.45;30.17;;;5.50;99.90;;;;;;4948918;28;20034;-63
2024/01/31 08:31:11;;;;;;;58.95;33.42;;;5.50;99.90;;;;;;4947837;28;20050;-64
2024/01/31 08:33:37;;;;;;;56.08;30.80;;;5.50;99.90;;;;;;4947317;28;20031;-64
2024/01/31 08:36:03;;;;;;;44.20;25.00;;;5.50;99.90;;;;;;4946594;28;20082;-62
2024/01/31 08:38:29;;;;;;;37.65;23.77;;;5.60;99.90;;;;;;4935753;28;20084;-63
2024/01/31 08:40:55;;;;;;;38.38;22.65;;;5.50;99.90;;;;;;4922183;29;20038;-64
2024/01/31 08:43:20;;;;;;;37.08;23.40;;;5.50;99.90;;;;;;4945959;28;20023;-63
2024/01/31 08:45:46;;;;;;;33.42;23.80;;;5.60;99.90;;;;;;4946696;28;20035;-64
2024/01/31 08:48:12;;;;;;;38.47;24.10;;;5.60;99.90;;;;;;4947744;28;20028;-63
2024/01/31 08:50:37;;;;;;;39.58;23.13;;;5.70;99.90;;;;;;4948658;28;20411;-63
2024/01/31 08:53:03;;;;;;;35.83;23.48;;;5.70;99.90;;;;;;4959726;28;20089;-63
2024/01/31 08:55:29;;;;;;;35.65;21.60;;;5.70;99.90;;;;;;4947579;28;20135;-64
2024/01/31 08:57:54;;;;;;;44.85;23.95;;;5.90;99.90;;;;;;4950406;28;20047;-62
2024/01/31 09:00:20;;;;;;;36.25;22.90;;;5.90;99.90;;;;;;4950839;28;20027;-63
2024/01/31 09:02:46;;;;;;;36.65;24.88;;;6.00;99.90;;;;;;4950254;28;20055;-65
2024/01/31 09:05:12;;;;;;;44.83;26.60;;;6.00;99.90;;;;;;4949309;28;20106;-63
2024/01/31 09:07:38;;;;;;;33.47;23.63;;;6.10;99.90;;;;;;4950325;28;20153;-64
2024/01/31 09:10:04;;;;;;;44.40;25.60;;;6.20;99.90;;;;;;4932904;28;20150;-63
2024/01/31 09:12:30;;;;;;;54.63;25.90;;;6.20;99.90;;;;;;4942346;28;20635;-62
2024/01/31 09:14:56;;;;;;;54.97;28.88;;;6.30;99.90;;;;;;4945675;28;20047;-64
2024/01/31 09:17:22;;;;;;;48.80;26.13;;;6.40;99.90;;;;;;4944221;28;20721;-63
2024/01/31 09:19:48;;;;;;;76.93;27.38;;;6.50;99.90;;;;;;4946122;28;20039;-65
2024/01/31 09:22:14;;;;;;;52.15;26.02;;;6.60;99.90;;;;;;4943654;28;20071;-64
2024/01/31 09:24:39;;;;;;;43.88;25.48;;;6.50;99.90;;;;;;4947249;28;20043;-65
2024/01/31 09:27:06;;;;;;;56.72;25.70;;;6.50;99.90;;;;;;4948504;28;20035;-64
2024/01/31 09:29:31;;;;;;;62.22;26.92;;;6.40;99.90;;;;;;4949867;28;20031;-64
2024/01/31 09:31:59;;;;;;;45.00;25.73;;;6.40;99.90;;;;;;4950810;28;20078;-64
2024/01/31 09:34:25;;;;;;;39.08;24.10;;;6.40;99.90;;;;;;4947918;28;20594;-64
2024/01/31 09:36:50;;;;;;;44.15;24.85;;;6.50;99.90;;;;;;4954075;28;20139;-65
2024/01/31 09:39:16;;;;;;;46.08;24.65;;;6.60;99.90;;;;;;4952780;28;20530;-63
2024/01/31 09:41:42;;;;;;;45.08;26.45;;;6.70;99.90;;;;;;4948876;28;20051;-64
2024/01/31 09:44:09;;;;;;;45.63;25.48;;;6.80;99.90;;;;;;4943472;28;20062;-63
2024/01/31 09:46:36;;;;;;;54.03;25.77;;;6.80;99.90;;;;;;4960523;28;21444;-63
2024/01/31 09:49:01;;;;;;;61.78;25.67;;;6.90;99.90;;;;;;4948743;28;20041;-64
2024/01/31 09:51:28;;;;;;;83.00;25.27;;;7.00;99.90;;;;;;4945533;28;20422;-63
2024/01/31 09:54:00;;;;;;;44.55;22.48;;;7.00;99.90;;;;;;4947995;28;20039;-65
2024/01/31 09:56:31;;;;;;;36.35;23.80;;;7.00;99.90;;;;;;4946037;28;20187;-65
2024/01/31 09:58:57;;;;;;;37.75;24.40;;;7.10;99.90;;;;;;4948004;28;20096;-65
2024/01/31 10:01:26;;;;;;;40.28;23.88;;;7.10;99.90;;;;;;4946003;28;20031;-64
2024/01/31 10:03:52;;;;;;;44.35;25.55;;;7.00;99.90;;;;;;4944508;28;20036;-64
2024/01/31 10:06:19;;;;;;;49.65;24.65;;;7.00;99.90;;;;;;4955644;28;20470;-65
2024/01/31 10:08:46;;;;;;;45.20;24.60;;;7.00;99.90;;;;;;4945883;28;20083;-63
2024/01/31 10:11:12;;;;;;;39.60;23.27;;;7.00;99.90;;;;;;4945142;28;20030;-65
2024/01/31 10:13:38;;;;;;;34.13;23.92;;;7.00;99.90;;;;;;4949045;28;20024;-63
2024/01/31 10:16:04;;;;;;;40.35;25.70;;;7.00;99.90;;;;;;4945551;28;20043;-62
2024/01/31 10:18:30;;;;;;;43.00;27.23;;;7.10;99.90;;;;;;4945174;28;20094;-63
2024/01/31 10:20:59;;;;;;;40.13;24.33;;;7.10;99.90;;;;;;4947927;28;20035;-64
2024/01/31 10:23:25;;;;;;;32.35;23.48;;;7.10;99.90;;;;;;4945188;28;20026;-64
2024/01/31 10:25:51;;;;;;;37.85;25.73;;;7.00;99.90;;;;;;4950334;28;20023;-64
2024/01/31 10:28:20;;;;;;;27.50;21.73;;;7.10;99.90;;;;;;4955407;28;20023;-64
2024/01/31 10:30:47;;;;;;;47.75;23.48;;;7.10;99.90;;;;;;4950451;28;20090;-64
2024/01/31 10:33:14;;;;;;;44.90;24.58;;;7.00;99.90;;;;;;4950537;28;20039;-65
2024/01/31 10:35:42;;;;;;;41.00;24.00;;;6.90;99.90;;;;;;4948274;28;20075;-65
2024/01/31 10:38:08;;;;;;;39.25;22.80;;;7.00;99.90;;;;;;4932633;28;20029;-64
2024/01/31 10:40:34;;;;;;;48.88;23.25;;;7.00;99.90;;;;;;4949709;28;20694;-63
2024/01/31 10:43:02;;;;;;;35.78;21.08;;;7.10;99.90;;;;;;4939738;28;20118;-64
2024/01/31 10:45:31;;;;;;;36.75;20.60;;;7.00;99.90;;;;;;4933209;28;20024;-63
2024/01/31 10:47:56;;;;;;;29.80;20.63;;;7.10;99.90;;;;;;4926907;28;20194;-63
2024/01/31 10:50:22;;;;;;;31.45;20.05;;;7.20;99.90;;;;;;4932122;28;20558;-64
2024/01/31 10:52:50;;;;;;;28.92;19.55;;;7.30;99.90;;;;;;4950295;28;20031;-63
2024/01/31 10:55:17;;;;;;;27.23;18.98;;;7.40;99.90;;;;;;4948590;28;20118;-64
2024/01/31 10:57:44;;;;;;;30.92;19.92;;;7.60;99.90;;;;;;4951844;28;20050;-64
2024/01/31 11:00:25;;;;;;;31.67;19.33;;;7.70;99.90;;;;;;4950691;28;20404;-64
2024/01/31 11:02:51;;;;;;;27.08;19.02;;;7.80;99.90;;;;;;4952608;28;20027;-63
2024/01/31 11:05:17;;;;;;;23.20;17.20;;;7.90;99.90;;;;;;4949950;28;20152;-64
2024/01/31 11:07:45;;;;;;;28.15;18.95;;;8.00;99.90;;;;;;4952388;28;20039;-64
2024/01/31 11:10:15;;;;;;;25.35;18.05;;;8.20;99.90;;;;;;4951725;28;20071;-65
2024/01/31 11:12:41;;;;;;;23.63;16.48;;;8.30;99.90;;;;;;4949165;28;20142;-64
2024/01/31 11:15:07;;;;;;;26.13;17.15;;;8.40;99.90;;;;;;4953254;28;20588;-65
2024/01/31 11:17:34;;;;;;;24.25;16.55;;;8.30;99.90;;;;;;4947115;28;20084;-63
2024/01/31 11:20:01;;;;;;;20.98;15.50;;;8.10;99.90;;;;;;4946669;28;20110;-65
2024/01/31 11:22:31;;;;;;;23.92;16.55;;;8.20;99.90;;;;;;4947792;28;20027;-64
2024/01/31 11:24:59;;;;;;;24.45;17.73;;;8.20;99.90;;;;;;4948677;28;20061;-65
2024/01/31 11:27:25;;;;;;;29.77;21.77;;;8.20;99.90;;;;;;4953169;28;20050;-65
2024/01/31 11:29:52;;;;;;;33.60;21.98;;;8.20;99.90;;;;;;4957322;28;20031;-64
2024/01/31 11:32:22;;;;;;;21.60;16.80;;;8.20;99.90;;;;;;4958706;28;20411;-64
2024/01/31 11:35:07;;;;;;;20.48;15.60;;;8.10;99.90;;;;;;4954701;28;20026;-64
2024/01/31 11:37:32;;;;;;;21.67;16.00;;;8.00;99.90;;;;;;4952092;28;20391;-65
2024/01/31 11:39:58;;;;;;;18.88;15.52;;;7.80;99.90;;;;;;4947726;28;20035;-64
2024/01/31 11:42:24;;;;;;;22.38;16.70;;;7.80;99.90;;;;;;4949388;28;20031;-63
2024/01/31 11:44:51;;;;;;;25.48;17.05;;;7.90;99.90;;;;;;4949239;28;20058;-65
2024/01/31 11:47:17;;;;;;;20.15;15.88;;;8.00;99.90;;;;;;4953763;28;20023;-64
2024/01/31 11:49:43;;;;;;;22.33;16.00;;;8.10;99.90;;;;;;4930274;28;20031;-65
2024/01/31 11:52:08;;;;;;;20.85;16.50;;;8.20;99.90;;;;;;4948021;28;20054;-63
2024/01/31 11:54:34;;;;;;;23.40;17.55;;;8.20;99.90;;;;;;4949728;28;20381;-64
2024/01/31 11:57:00;;;;;;;20.38;17.05;;;8.30;99.90;;;;;;4949914;28;20595;-64
2024/01/31 11:59:26;;;;;;;23.80;18.38;;;8.30;99.90;;;;;;4948164;28;20042;-64
2024/01/31 12:01:52;;;;;;;25.20;18.98;;;8.30;99.90;;;;;;4951233;28;20075;-64
2024/01/31 12:04:18;;;;;;;23.27;16.98;;;8.30;99.90;;;;;;4947660;28;20435;-64
2024/01/31 12:06:44;;;;;;;18.67;16.63;;;8.40;99.90;;;;;;4945188;28;20031;-63
2024/01/31 12:09:10;;;;;;;21.10;18.73;;;8.40;99.90;;;;;;4942291;28;20039;-63
2024/01/31 12:11:36;;;;;;;21.58;16.48;;;8.50;99.90;;;;;;4932831;28;20040;-65
2024/01/31 12:14:01;;;;;;;17.40;15.52;;;8.40;99.90;;;;;;4944876;28;20035;-65
2024/01/31 12:16:37;;;;;;;24.30;16.90;;;8.30;99.90;;;;;;4948570;28;20027;-64
2024/01/31 12:19:04;;;;;;;25.63;19.10;;;8.20;99.90;;;;;;4956974;28;20023;-64
2024/01/31 12:21:42;;;;;;;23.77;17.17;;;8.20;99.90;;;;;;4939189;28;20020;-63
2024/01/31 12:24:08;;;;;;;23.90;17.38;;;8.00;99.90;;;;;;4939235;28;20043;-64
2024/01/31 12:26:34;;;;;;;25.63;17.73;;;7.90;99.90;;;;;;4950439;28;20031;-64
2024/01/31 12:28:59;;;;;;;18.90;16.58;;;7.70;99.90;;;;;;4949878;28;20390;-64
2024/01/31 12:31:25;;;;;;;23.38;18.20;;;7.60;99.90;;;;;;4950388;28;20028;-63